createdAt,value
2019-04-16T00:01:07.563Z,15.60
2019-04-16T00:03:35.378Z,14.10
2019-04-16T00:06:03.619Z,13.17
2019-04-16T00:08:34.537Z,14.57
2019-04-16T00:11:08.697Z,15.63
2019-04-16T00:13:39.850Z,14.97
2019-04-16T00:16:06.165Z,14.13
2019-04-16T00:18:32.356Z,13.80
2019-04-16T00:21:00.524Z,13.70
2019-04-16T00:23:46.861Z,12.17
2019-04-16T00:26:13.243Z,14.23
2019-04-16T00:28:39.658Z,13.37
2019-04-16T00:31:05.961Z,14.27
2019-04-16T00:33:32.353Z,13.83
2019-04-16T00:35:58.651Z,14.63
2019-04-16T00:38:24.974Z,14.17
2019-04-16T00:40:51.129Z,13.87
2019-04-16T00:43:17.371Z,13.27
2019-04-16T00:45:43.638Z,14.87
2019-04-16T00:48:09.816Z,14.40
2019-04-16T00:50:36.051Z,15.07
2019-04-16T00:53:02.466Z,14.63
2019-04-16T00:55:28.677Z,14.30
2019-04-16T00:57:54.931Z,14.00
2019-04-16T01:00:21.296Z,13.83
2019-04-16T01:02:47.510Z,14.40
2019-04-16T01:05:13.823Z,14.17
2019-04-16T01:07:40.070Z,13.27
2019-04-16T01:10:06.676Z,15.23
2019-04-16T01:12:32.990Z,15.23
2019-04-16T01:15:00.939Z,14.70
2019-04-16T01:17:27.335Z,15.27
2019-04-16T01:19:53.558Z,14.97
2019-04-16T01:22:19.711Z,14.50
2019-04-16T01:24:46.168Z,13.93
2019-04-16T01:27:12.508Z,14.40
2019-04-16T01:29:38.643Z,13.13
2019-04-16T01:32:21.823Z,12.97
2019-04-16T01:34:49.852Z,16.10
2019-04-16T01:37:18.033Z,16.70
2019-04-16T01:39:49.134Z,16.73
2019-04-16T01:42:15.319Z,17.57
2019-04-16T01:44:41.522Z,18.77
2019-04-16T01:47:07.855Z,18.77
2019-04-16T01:49:34.106Z,18.33
2019-04-16T01:52:00.377Z,18.33
2019-04-16T01:54:26.648Z,17.00
2019-04-16T01:56:52.950Z,15.27
2019-04-16T01:59:19.076Z,14.53
2019-04-16T02:01:45.469Z,16.80
2019-04-16T02:04:11.910Z,15.50
2019-04-16T02:06:38.147Z,16.50
2019-04-16T02:09:05.366Z,15.47
2019-04-16T02:11:31.659Z,15.03
2019-04-16T02:13:57.766Z,14.47
2019-04-16T02:16:25.200Z,14.50
2019-04-16T02:18:52.083Z,14.87
2019-04-16T02:21:18.261Z,13.23
2019-04-16T02:23:45.409Z,13.33
2019-04-16T02:26:12.641Z,14.10
2019-04-16T02:28:38.887Z,13.30
2019-04-16T02:31:13.791Z,13.67
2019-04-16T02:33:33.142Z,14.00
2019-04-16T02:35:59.381Z,14.60
2019-04-16T02:38:25.767Z,13.67
2019-04-16T02:40:53.285Z,14.97
2019-04-16T02:43:19.804Z,17.37
2019-04-16T02:45:46.264Z,17.23
2019-04-16T02:48:16.594Z,16.77
2019-04-16T02:50:42.408Z,17.70
2019-04-16T02:53:10.644Z,16.23
2019-04-16T02:55:50.827Z,16.17
2019-04-16T02:58:18.894Z,16.77
2019-04-16T03:01:02.419Z,16.00
2019-04-16T03:03:39.604Z,17.37
2019-04-16T03:06:06.047Z,16.27
2019-04-16T03:08:33.364Z,14.83
2019-04-16T03:11:00.533Z,15.03
2019-04-16T03:13:26.921Z,14.57
2019-04-16T03:15:58.170Z,13.33
2019-04-16T03:18:26.442Z,13.03
2019-04-16T03:20:55.813Z,13.37
2019-04-16T03:23:20.783Z,17.50
2019-04-16T03:25:46.986Z,16.10
2019-04-16T03:28:13.456Z,15.97
2019-04-16T03:30:42.420Z,17.40
2019-04-16T03:33:12.732Z,16.50
2019-04-16T03:35:35.883Z,15.30
2019-04-16T03:38:05.074Z,15.83
2019-04-16T03:40:30.061Z,17.13
2019-04-16T03:42:58.933Z,15.43
2019-04-16T03:45:24.473Z,16.40
2019-04-16T03:47:52.217Z,15.43
2019-04-16T03:50:18.603Z,14.70
2019-04-16T03:52:45.757Z,16.57
2019-04-16T03:55:12.228Z,16.30
2019-04-16T03:57:38.594Z,16.00
2019-04-16T04:00:11.137Z,15.83
2019-04-16T04:02:35.036Z,16.23
2019-04-16T04:05:06.111Z,17.77
2019-04-16T04:07:29.438Z,15.43
2019-04-16T04:09:58.672Z,16.40
2019-04-16T04:12:23.741Z,15.17
2019-04-16T04:14:51.283Z,14.40
2019-04-16T04:17:18.341Z,16.00
2019-04-16T04:19:46.244Z,15.43
2019-04-16T04:22:12.751Z,19.17
2019-04-16T04:24:39.026Z,17.90
2019-04-16T04:27:05.343Z,17.70
2019-04-16T04:29:31.525Z,17.30
2019-04-16T04:32:03.082Z,15.07
2019-04-16T04:34:26.031Z,17.30
2019-04-16T04:36:52.347Z,17.23
2019-04-16T04:39:18.618Z,15.70
2019-04-16T04:41:44.954Z,16.37
2019-04-16T04:44:11.233Z,15.83
2019-04-16T04:46:37.570Z,15.33
2019-04-16T04:49:03.921Z,14.80
2019-04-16T04:51:30.170Z,15.60
2019-04-16T04:53:56.303Z,13.97
2019-04-16T04:56:22.518Z,18.33
2019-04-16T04:58:49.177Z,14.87
2019-04-16T05:01:15.418Z,15.93
2019-04-16T05:03:44.428Z,16.03
2019-04-16T05:06:27.760Z,15.77
2019-04-16T05:08:53.529Z,16.23
2019-04-16T05:11:19.726Z,15.73
2019-04-16T05:13:45.987Z,19.53
2019-04-16T05:16:12.241Z,17.27
2019-04-16T05:18:41.918Z,15.53
2019-04-16T05:21:06.554Z,17.07
2019-04-16T05:23:32.706Z,20.00
2019-04-16T05:25:58.923Z,19.27
2019-04-16T05:28:25.233Z,17.67
2019-04-16T05:30:52.322Z,19.47
2019-04-16T05:33:19.267Z,17.83
2019-04-16T05:35:45.542Z,18.43
2019-04-16T05:38:11.792Z,17.23
2019-04-16T05:40:38.013Z,18.27
2019-04-16T05:43:04.126Z,21.30
2019-04-16T05:45:30.401Z,19.73
2019-04-16T05:47:56.653Z,19.87
2019-04-16T05:50:23.130Z,18.83
2019-04-16T05:52:49.456Z,17.40
2019-04-16T05:55:20.733Z,17.07
2019-04-16T05:57:51.746Z,16.73
2019-04-16T06:00:23.074Z,16.67
2019-04-16T06:02:50.507Z,15.67
2019-04-16T06:05:17.077Z,14.77
2019-04-16T06:07:43.291Z,14.77
2019-04-16T06:10:09.623Z,14.70
2019-04-16T06:12:40.048Z,20.83
2019-04-16T06:15:22.249Z,18.70
2019-04-16T06:18:06.594Z,18.37
2019-04-16T06:20:34.618Z,16.27
2019-04-16T06:23:05.378Z,14.87
2019-04-16T06:25:41.033Z,13.93
2019-04-16T06:28:06.331Z,14.87
2019-04-16T06:30:37.130Z,12.67
2019-04-16T06:33:05.565Z,12.30
2019-04-16T06:35:48.753Z,13.77
2019-04-16T06:38:16.889Z,16.43
2019-04-16T06:40:45.041Z,12.53
2019-04-16T06:43:13.156Z,13.63
2019-04-16T06:45:44.183Z,12.07
2019-04-16T06:48:13.132Z,12.53
2019-04-16T06:50:50.973Z,14.70
2019-04-16T06:53:35.701Z,28.23
2019-04-16T06:56:20.768Z,27.70
2019-04-16T06:58:57.245Z,31.47
2019-04-16T07:01:24.670Z,31.67
2019-04-16T07:03:59.720Z,31.50
2019-04-16T07:06:37.157Z,31.53
2019-04-16T07:09:23.429Z,29.60
2019-04-16T07:11:54.622Z,35.07
2019-04-16T07:14:17.590Z,33.92
2019-04-16T07:16:44.171Z,33.23
2019-04-16T07:19:11.646Z,36.37
2019-04-16T07:21:37.832Z,32.93
2019-04-16T07:24:04.180Z,31.17
2019-04-16T07:26:30.434Z,30.77
2019-04-16T07:29:11.042Z,31.87
2019-04-16T07:31:53.244Z,29.37
2019-04-16T07:34:33.573Z,31.85
2019-04-16T07:37:04.771Z,28.92
2019-04-16T07:39:36.977Z,28.02
2019-04-16T07:42:10.297Z,27.52
2019-04-16T07:44:36.523Z,29.42
2019-04-16T07:47:22.158Z,28.00
2019-04-16T07:49:59.959Z,30.68
2019-04-16T07:52:26.348Z,28.87
2019-04-16T07:55:11.179Z,28.70
2019-04-16T07:57:37.406Z,25.90
2019-04-16T08:00:09.518Z,25.27
2019-04-16T08:02:35.413Z,22.45
2019-04-16T08:05:07.317Z,21.35
2019-04-16T08:07:29.917Z,24.98
2019-04-16T08:10:01.717Z,24.98
2019-04-16T08:12:30.371Z,27.05
2019-04-16T08:14:52.174Z,23.25
2019-04-16T08:17:18.344Z,23.27
2019-04-16T08:19:44.771Z,24.72
2019-04-16T08:22:15.717Z,27.87
2019-04-16T08:24:59.430Z,26.87
2019-04-16T08:27:22.773Z,25.92
2019-04-16T08:29:49.057Z,24.37
2019-04-16T08:32:16.007Z,25.70
2019-04-16T08:34:43.143Z,22.42
2019-04-16T08:37:09.409Z,29.12
2019-04-16T08:39:36.868Z,27.27
2019-04-16T08:42:04.100Z,26.60
2019-04-16T08:44:35.306Z,26.57
2019-04-16T08:46:59.203Z,45.12
2019-04-16T08:49:25.817Z,31.57
2019-04-16T08:51:52.050Z,26.17
2019-04-16T08:54:18.878Z,23.70
2019-04-16T08:56:45.670Z,23.77
2019-04-16T08:59:11.891Z,21.93
2019-04-16T09:01:38.265Z,23.67
2019-04-16T09:04:04.529Z,24.45
2019-04-16T09:06:30.698Z,24.85
2019-04-16T09:09:12.780Z,19.55
2019-04-16T09:11:35.095Z,23.90
2019-04-16T09:14:03.642Z,21.27
2019-04-16T09:16:31.871Z,20.97
2019-04-16T09:19:02.784Z,21.97
2019-04-16T09:21:29.119Z,22.00
2019-04-16T09:24:14.224Z,20.48
2019-04-16T09:26:48.324Z,18.02
2019-04-16T09:29:16.495Z,16.50
2019-04-16T09:31:55.016Z,16.90
2019-04-16T09:34:39.616Z,19.00
2019-04-16T09:37:25.410Z,22.02
2019-04-16T09:39:56.449Z,18.77
2019-04-16T09:42:23.191Z,15.75
2019-04-16T09:44:49.429Z,13.40
2019-04-16T09:47:15.735Z,14.35
2019-04-16T09:49:42.048Z,15.35
2019-04-16T09:52:08.309Z,16.37
2019-04-16T09:54:34.540Z,14.80
2019-04-16T09:57:00.804Z,13.53
2019-04-16T09:59:31.641Z,13.78
2019-04-16T10:02:00.025Z,13.53
2019-04-16T10:04:26.288Z,15.20
2019-04-16T10:06:52.505Z,15.20
2019-04-16T10:09:21.749Z,16.15
2019-04-16T10:11:46.891Z,18.55
2019-04-16T10:14:13.516Z,12.82
2019-04-16T10:16:39.861Z,14.70
2019-04-16T10:19:08.309Z,14.30
2019-04-16T10:21:34.193Z,13.48
2019-04-16T10:24:14.686Z,15.00
2019-04-16T10:26:41.314Z,15.20
2019-04-16T10:29:09.462Z,14.60
2019-04-16T10:31:35.870Z,14.15
2019-04-16T10:34:02.210Z,14.20
2019-04-16T10:36:28.514Z,17.45
2019-04-16T10:38:59.595Z,20.37
2019-04-16T10:41:40.205Z,20.68
2019-04-16T10:44:14.694Z,17.27
2019-04-16T10:46:59.437Z,16.15
2019-04-16T10:49:44.336Z,14.23
2019-04-16T10:52:15.205Z,13.32
2019-04-16T10:54:43.457Z,14.70
2019-04-16T10:57:23.811Z,19.62
2019-04-16T10:59:57.664Z,19.15
2019-04-16T11:02:44.193Z,20.25
2019-04-16T11:05:20.076Z,16.20
2019-04-16T11:07:48.434Z,22.48
2019-04-16T11:10:15.040Z,20.80
2019-04-16T11:12:41.329Z,16.25
2019-04-16T11:15:08.247Z,16.40
2019-04-16T11:17:34.606Z,16.05
2019-04-16T11:20:01.091Z,18.50
2019-04-16T11:22:27.305Z,20.12
2019-04-16T11:24:53.631Z,17.23
2019-04-16T11:27:19.813Z,18.77
2019-04-16T11:29:46.189Z,17.62
2019-04-16T11:32:14.320Z,15.80
2019-04-16T11:34:40.703Z,15.15
2019-04-16T11:37:08.092Z,19.52
2019-04-16T11:39:35.063Z,15.90
2019-04-16T11:42:01.450Z,14.65
2019-04-16T11:44:27.763Z,12.47
2019-04-16T11:46:54.115Z,12.10
2019-04-16T11:49:20.651Z,16.70
2019-04-16T11:51:47.110Z,17.45
2019-04-16T11:54:13.355Z,24.57
2019-04-16T11:56:41.504Z,28.57
2019-04-16T11:59:07.736Z,23.77
2019-04-16T12:01:47.871Z,25.27
2019-04-16T12:04:34.072Z,20.85
2019-04-16T12:07:05.186Z,24.15
2019-04-16T12:09:32.318Z,20.52
2019-04-16T12:12:12.840Z,18.70
2019-04-16T12:14:44.047Z,17.52
2019-04-16T12:17:24.208Z,15.98
2019-04-16T12:19:58.302Z,15.43
2019-04-16T12:22:29.180Z,15.13
2019-04-16T12:24:57.379Z,25.12
2019-04-16T12:27:41.848Z,22.00
2019-04-16T12:30:13.192Z,20.92
2019-04-16T12:32:56.172Z,16.00
2019-04-16T12:35:34.847Z,21.62
2019-04-16T12:38:11.947Z,22.42
2019-04-16T12:40:55.876Z,22.95
2019-04-16T12:43:23.987Z,28.95
2019-04-16T12:45:58.167Z,30.20
2019-04-16T12:48:38.372Z,29.87
2019-04-16T12:51:06.537Z,25.60
2019-04-16T12:53:36.313Z,26.97
2019-04-16T12:56:07.501Z,28.30
2019-04-16T12:58:34.780Z,24.12
2019-04-16T13:01:19.955Z,23.20
2019-04-16T13:04:06.448Z,22.40
2019-04-16T13:06:34.608Z,28.02
2019-04-16T13:09:14.764Z,21.30
2019-04-16T13:11:43.032Z,20.97
2019-04-16T13:14:14.064Z,20.77
2019-04-16T13:16:57.208Z,25.75
2019-04-16T13:19:40.373Z,25.43
2019-04-16T13:22:08.677Z,22.37
2019-04-16T13:24:36.746Z,20.20
2019-04-16T13:27:07.970Z,21.33
2019-04-16T13:29:34.227Z,23.20
2019-04-16T13:32:00.553Z,29.77
2019-04-16T13:34:26.971Z,23.40
2019-04-16T13:36:53.228Z,22.80
2019-04-16T13:39:27.462Z,22.70
2019-04-16T13:41:53.787Z,22.85
2019-04-16T13:44:27.619Z,68.97
2019-04-16T13:46:53.965Z,23.45
2019-04-16T13:49:24.338Z,26.12
2019-04-16T13:51:50.315Z,39.58
2019-04-16T13:54:27.846Z,22.62
2019-04-16T13:57:09.604Z,86.78
2019-04-16T13:59:55.980Z,27.73
2019-04-16T14:02:36.409Z,21.57
2019-04-16T14:05:05.283Z,24.10
2019-04-16T14:07:31.903Z,22.42
2019-04-16T14:09:58.232Z,25.43
2019-04-16T14:12:40.808Z,24.63
2019-04-16T14:14:52.538Z,22.67
2019-04-16T14:17:20.705Z,19.92
2019-04-16T14:19:47.072Z,21.48
2019-04-16T14:22:13.233Z,22.95
2019-04-16T14:24:39.480Z,20.65
2019-04-16T14:27:05.678Z,26.15
2019-04-16T14:29:32.043Z,22.58
2019-04-16T14:31:58.789Z,19.95
2019-04-16T14:34:30.029Z,19.32
2019-04-16T14:36:56.990Z,16.20
2019-04-16T14:39:25.875Z,19.12
2019-04-16T14:41:52.196Z,22.25
2019-04-16T14:44:20.347Z,23.87
2019-04-16T14:46:46.467Z,23.52
2019-04-16T14:49:15.193Z,27.22
2019-04-16T14:51:40.863Z,28.90
2019-04-16T14:54:11.878Z,29.40
2019-04-16T14:56:39.906Z,29.30
2019-04-16T14:59:11.010Z,29.95
2019-04-16T15:01:39.092Z,30.82
2019-04-16T15:04:24.140Z,27.90
2019-04-16T15:06:58.471Z,29.55
2019-04-16T15:09:43.451Z,32.13
2019-04-16T15:12:28.435Z,28.15
2019-04-16T15:15:11.761Z,30.90
2019-04-16T15:17:41.607Z,29.63
2019-04-16T15:20:10.414Z,31.85
2019-04-16T15:22:47.522Z,31.12
2019-04-16T15:25:21.639Z,31.12
2019-04-16T15:28:06.232Z,31.77
2019-04-16T15:30:54.222Z,31.73
2019-04-16T15:33:28.498Z,32.05
2019-04-16T15:36:08.617Z,30.60
2019-04-16T15:38:39.566Z,27.62
2019-04-16T15:41:13.068Z,26.90
2019-04-16T15:43:50.440Z,24.82
2019-04-16T15:46:28.438Z,25.37
2019-04-16T15:48:56.566Z,25.48
2019-04-16T15:51:24.599Z,23.52
2019-04-16T15:53:58.501Z,23.18
2019-04-16T15:56:41.934Z,21.52
2019-04-16T15:59:10.223Z,20.97
2019-04-16T16:01:41.066Z,19.87
2019-04-16T16:04:09.135Z,18.42
2019-04-16T16:06:37.670Z,17.35
2019-04-16T16:09:07.855Z,16.30
2019-04-16T16:11:36.764Z,17.05
2019-04-16T16:14:03.214Z,15.40
2019-04-16T16:16:41.131Z,14.70
2019-04-16T16:18:57.433Z,15.65
2019-04-16T16:21:23.818Z,15.55
2019-04-16T16:23:50.103Z,15.23
2019-04-16T16:26:16.595Z,14.47
2019-04-16T16:28:42.875Z,14.73
2019-04-16T16:31:09.095Z,14.63
2019-04-16T16:33:35.349Z,13.53
2019-04-16T16:36:01.697Z,11.80
2019-04-16T16:38:27.934Z,10.80
2019-04-16T16:40:54.353Z,11.05
2019-04-16T16:43:20.564Z,10.20
2019-04-16T16:45:48.636Z,11.48
2019-04-16T16:48:14.945Z,11.97
2019-04-16T16:50:43.773Z,12.55
2019-04-16T16:53:22.972Z,12.05
2019-04-16T16:55:50.434Z,10.50
2019-04-16T16:58:24.558Z,10.70
2019-04-16T17:01:01.791Z,10.90
2019-04-16T17:03:46.854Z,10.03
2019-04-16T17:06:15.085Z,11.05
2019-04-16T17:08:41.355Z,9.75
2019-04-16T17:11:16.105Z,8.88
2019-04-16T17:13:36.132Z,13.13
2019-04-16T17:16:02.587Z,15.48
2019-04-16T17:18:28.748Z,15.13
2019-04-16T17:20:55.087Z,14.85
2019-04-16T17:23:21.347Z,17.40
2019-04-16T17:25:47.607Z,18.23
2019-04-16T17:28:13.905Z,15.50
2019-04-16T17:30:40.158Z,14.53
2019-04-16T17:33:06.522Z,13.85
2019-04-16T17:35:32.748Z,14.80
2019-04-16T17:38:02.767Z,14.40
2019-04-16T17:40:29.343Z,13.35
2019-04-16T17:42:57.672Z,12.43
2019-04-16T17:45:28.699Z,15.00
2019-04-16T17:48:13.400Z,14.60
2019-04-16T17:50:44.170Z,16.45
2019-04-16T17:53:21.546Z,13.08
2019-04-16T17:55:52.957Z,13.32
2019-04-16T17:58:27.346Z,13.05
2019-04-16T18:00:59.267Z,12.00
2019-04-16T18:03:39.573Z,11.70
2019-04-16T18:06:26.185Z,12.10
2019-04-16T18:08:57.308Z,10.72
2019-04-16T18:11:44.792Z,10.18
2019-04-16T18:14:30.186Z,10.75
2019-04-16T18:17:01.374Z,12.70
2019-04-16T18:19:46.818Z,12.73
2019-04-16T18:22:17.647Z,11.68
2019-04-16T18:25:01.219Z,10.13
2019-04-16T18:27:38.502Z,10.00
2019-04-16T18:30:12.320Z,9.18
2019-04-16T18:32:43.473Z,9.55
2019-04-16T18:35:17.431Z,9.45
2019-04-16T18:37:51.817Z,9.23
2019-04-16T18:40:19.962Z,9.88
2019-04-16T18:43:06.174Z,8.35
2019-04-16T18:45:34.285Z,9.65
2019-04-16T18:48:20.392Z,9.80
2019-04-16T18:50:46.516Z,11.70
2019-04-16T18:53:13.548Z,13.38
2019-04-16T18:55:39.747Z,12.23
2019-04-16T18:58:06.196Z,14.40
2019-04-16T19:00:34.302Z,14.58
2019-04-16T19:03:00.628Z,14.95
2019-04-16T19:05:26.867Z,15.38
2019-04-16T19:07:55.965Z,13.98
2019-04-16T19:10:21.137Z,13.13
2019-04-16T19:12:47.494Z,15.63
2019-04-16T19:15:13.807Z,17.27
2019-04-16T19:17:39.971Z,16.30
2019-04-16T19:20:06.336Z,18.75
2019-04-16T19:22:32.692Z,18.25
2019-04-16T19:24:58.996Z,18.98
2019-04-16T19:27:27.914Z,16.55
2019-04-16T19:29:53.397Z,16.35
2019-04-16T19:32:19.663Z,15.50
2019-04-16T19:34:46.370Z,15.60
2019-04-16T19:37:12.614Z,14.98
2019-04-16T19:39:38.992Z,11.88
2019-04-16T19:42:05.487Z,14.18
2019-04-16T19:44:33.631Z,15.72
2019-04-16T19:46:59.720Z,18.02
2019-04-16T19:49:26.050Z,16.30
2019-04-16T19:51:52.891Z,14.73
2019-04-16T19:54:19.242Z,12.80
2019-04-16T19:56:51.151Z,13.32
2019-04-16T19:59:14.241Z,18.40
2019-04-16T20:01:40.750Z,15.70
2019-04-16T20:04:10.687Z,17.45
2019-04-16T20:06:34.932Z,15.13
2019-04-16T20:09:01.441Z,13.93
2019-04-16T20:11:27.787Z,13.90
2019-04-16T20:13:54.129Z,13.53
2019-04-16T20:16:20.483Z,14.38
2019-04-16T20:18:51.308Z,19.23
2019-04-16T20:21:15.104Z,20.50
2019-04-16T20:23:41.452Z,20.10
2019-04-16T20:26:07.910Z,18.65
2019-04-16T20:28:34.516Z,20.12
2019-04-16T20:31:03.969Z,19.95
2019-04-16T20:33:28.849Z,22.80
2019-04-16T20:35:55.279Z,20.37
2019-04-16T20:38:21.494Z,23.65
2019-04-16T20:40:47.624Z,19.55
2019-04-16T20:43:13.888Z,18.17
2019-04-16T20:45:40.982Z,18.12
2019-04-16T20:48:09.071Z,16.95
2019-04-16T20:50:35.311Z,19.42
2019-04-16T20:53:06.213Z,33.23
2019-04-16T20:55:29.777Z,26.90
2019-04-16T20:57:58.675Z,22.87
2019-04-16T21:00:26.001Z,20.40
2019-04-16T21:02:52.259Z,20.70
2019-04-16T21:05:22.251Z,21.07
2019-04-16T21:07:47.199Z,24.87
2019-04-16T21:10:14.226Z,23.00
2019-04-16T21:12:45.102Z,22.58
2019-04-16T21:15:08.527Z,21.17
2019-04-16T21:17:38.238Z,20.52
2019-04-16T21:20:04.831Z,19.27
2019-04-16T21:22:31.096Z,17.93
2019-04-16T21:24:57.574Z,15.10
2019-04-16T21:27:23.800Z,14.35
2019-04-16T21:29:50.003Z,12.47
2019-04-16T21:32:23.854Z,12.40
2019-04-16T21:35:10.398Z,11.50
2019-04-16T21:37:44.719Z,10.50
2019-04-16T21:40:11.171Z,10.93
2019-04-16T21:42:37.522Z,11.97
2019-04-16T21:45:05.307Z,16.30
2019-04-16T21:47:31.533Z,15.72
2019-04-16T21:49:58.005Z,15.20
2019-04-16T21:52:24.279Z,14.30
2019-04-16T21:54:50.657Z,15.30
2019-04-16T21:57:17.007Z,13.95
2019-04-16T21:59:43.241Z,12.58
2019-04-16T22:02:17.580Z,12.78
2019-04-16T22:04:45.442Z,13.18
2019-04-16T22:07:11.882Z,13.22
2019-04-16T22:09:38.113Z,13.40
2019-04-16T22:12:04.562Z,14.07
2019-04-16T22:14:30.781Z,14.28
2019-04-16T22:17:02.536Z,13.40
2019-04-16T22:19:25.099Z,12.70
2019-04-16T22:21:51.237Z,12.15
2019-04-16T22:24:19.742Z,12.67
2019-04-16T22:26:45.418Z,11.25
2019-04-16T22:29:15.423Z,10.08
2019-04-16T22:31:39.614Z,12.10
2019-04-16T22:34:05.821Z,14.43
2019-04-16T22:36:31.978Z,14.13
2019-04-16T22:39:03.260Z,14.78
2019-04-16T22:41:34.225Z,14.68
2019-04-16T22:44:02.490Z,13.23
2019-04-16T22:46:30.719Z,12.97
2019-04-16T22:48:58.389Z,12.33
2019-04-16T22:51:24.901Z,11.10
2019-04-16T22:53:51.641Z,10.48
2019-04-16T22:56:18.194Z,10.70
2019-04-16T22:58:48.277Z,12.03
2019-04-16T23:01:14.888Z,10.93
2019-04-16T23:03:41.114Z,10.17
2019-04-16T23:06:08.194Z,9.85
2019-04-16T23:08:34.592Z,9.60
2019-04-16T23:11:00.961Z,9.20
2019-04-16T23:13:32.309Z,8.97
2019-04-16T23:15:55.268Z,8.33
2019-04-16T23:18:21.491Z,8.57
2019-04-16T23:20:47.605Z,8.27
2019-04-16T23:23:18.053Z,8.00
2019-04-16T23:25:41.835Z,8.73
2019-04-16T23:28:10.706Z,9.87
2019-04-16T23:30:36.147Z,10.40
2019-04-16T23:33:02.360Z,9.33
2019-04-16T23:35:28.629Z,11.70
2019-04-16T23:37:58.108Z,11.20
2019-04-16T23:40:22.907Z,10.13
2019-04-16T23:42:53.797Z,9.73
2019-04-16T23:45:40.062Z,9.38
2019-04-16T23:48:08.080Z,9.77
2019-04-16T23:50:44.790Z,10.50
2019-04-16T23:53:12.396Z,10.57
2019-04-16T23:55:45.791Z,10.08
2019-04-16T23:58:13.546Z,10.07
